createdAt,value
2018-11-06T00:01:50.601Z,18.00
2018-11-06T00:04:18.965Z,17.23
2018-11-06T00:06:47.345Z,16.60
2018-11-06T00:09:15.797Z,15.93
2018-11-06T00:11:44.106Z,16.47
2018-11-06T00:14:12.349Z,17.13
2018-11-06T00:16:40.617Z,16.07
2018-11-06T00:19:08.894Z,17.77
2018-11-06T00:21:37.189Z,17.03
2018-11-06T00:24:05.621Z,17.63
2018-11-06T00:26:34.028Z,17.57
2018-11-06T00:29:02.285Z,15.97
2018-11-06T00:31:30.551Z,16.63
2018-11-06T00:33:58.924Z,17.07
2018-11-06T00:36:27.349Z,17.13
2018-11-06T00:38:55.633Z,17.43
2018-11-06T00:41:23.873Z,17.30
2018-11-06T00:43:52.277Z,18.57
2018-11-06T00:46:20.895Z,19.50
2018-11-06T00:48:49.180Z,18.37
2018-11-06T00:51:17.578Z,18.87
2018-11-06T00:53:46.476Z,19.40
2018-11-06T00:56:14.816Z,17.27
2018-11-06T00:58:43.077Z,16.83
2018-11-06T01:01:11.501Z,17.50
2018-11-06T01:03:45.182Z,18.80
2018-11-06T01:06:13.579Z,18.67
2018-11-06T01:08:41.861Z,20.23
2018-11-06T01:11:10.263Z,19.80
2018-11-06T01:13:38.646Z,19.87
2018-11-06T01:16:07.211Z,20.33
2018-11-06T01:18:35.698Z,18.97
2018-11-06T01:21:04.040Z,18.47
2018-11-06T01:23:32.414Z,18.47
2018-11-06T01:26:00.678Z,17.73
2018-11-06T01:28:28.969Z,18.90
2018-11-06T01:30:57.217Z,17.90
2018-11-06T01:33:26.342Z,17.03
2018-11-06T01:35:54.727Z,17.20
2018-11-06T01:38:23.111Z,18.67
2018-11-06T01:40:51.646Z,17.67
2018-11-06T01:43:20.219Z,18.97
2018-11-06T01:45:48.570Z,18.30
2018-11-06T01:48:16.915Z,18.97
2018-11-06T01:50:45.253Z,18.17
2018-11-06T01:53:13.601Z,17.57
2018-11-06T01:55:42.476Z,18.47
2018-11-06T01:58:10.850Z,18.23
2018-11-06T02:00:39.564Z,19.67
2018-11-06T02:03:08.469Z,19.27
2018-11-06T02:05:36.841Z,19.17
2018-11-06T02:08:05.430Z,19.20
2018-11-06T02:10:33.718Z,18.57
2018-11-06T02:13:02.083Z,19.40
2018-11-06T02:15:30.459Z,17.63
2018-11-06T02:17:58.828Z,16.80
2018-11-06T02:20:27.204Z,17.03
2018-11-06T02:22:55.505Z,18.40
2018-11-06T02:25:23.797Z,19.07
2018-11-06T02:27:52.180Z,19.27
2018-11-06T02:30:20.805Z,18.03
2018-11-06T02:32:49.121Z,17.57
2018-11-06T02:35:17.441Z,18.43
2018-11-06T02:37:45.851Z,16.40
2018-11-06T02:40:15.401Z,16.97
2018-11-06T02:42:43.805Z,18.60
2018-11-06T02:45:12.923Z,16.97
2018-11-06T02:47:42.277Z,18.50
2018-11-06T02:50:12.018Z,19.43
2018-11-06T02:52:41.110Z,19.10
2018-11-06T02:55:10.098Z,19.50
2018-11-06T02:57:38.789Z,20.03
2018-11-06T03:00:09.676Z,20.40
2018-11-06T03:02:37.987Z,20.43
2018-11-06T03:05:06.630Z,20.20
2018-11-06T03:07:34.886Z,22.30
2018-11-06T03:10:03.772Z,21.27
2018-11-06T03:12:31.985Z,21.17
2018-11-06T03:15:00.399Z,18.30
2018-11-06T03:17:29.193Z,18.07
2018-11-06T03:19:57.590Z,19.97
2018-11-06T03:22:26.145Z,18.17
2018-11-06T03:24:54.436Z,17.60
2018-11-06T03:27:22.841Z,17.60
2018-11-06T03:29:52.220Z,18.27
2018-11-06T03:32:20.869Z,19.03
2018-11-06T03:34:49.141Z,18.73
2018-11-06T03:37:17.929Z,18.23
2018-11-06T03:39:46.217Z,18.13
2018-11-06T03:42:15.512Z,19.40
2018-11-06T03:44:43.982Z,17.57
2018-11-06T03:47:12.429Z,17.50
2018-11-06T03:49:40.805Z,17.17
2018-11-06T03:52:09.613Z,16.40
2018-11-06T03:54:37.981Z,16.10
2018-11-06T03:57:06.233Z,16.17
2018-11-06T03:59:35.870Z,17.17
2018-11-06T04:05:00.269Z,17.10
2018-11-06T04:07:28.588Z,17.80
2018-11-06T04:09:56.884Z,17.47
2018-11-06T04:12:25.489Z,16.70
2018-11-06T04:14:53.908Z,15.10
2018-11-06T04:17:23.192Z,15.47
2018-11-06T04:19:51.491Z,16.90
2018-11-06T04:22:19.756Z,18.37
2018-11-06T04:24:48.042Z,18.77
2018-11-06T04:27:16.294Z,18.93
2018-11-06T04:29:44.540Z,16.33
2018-11-06T04:32:12.833Z,17.53
2018-11-06T04:34:41.262Z,16.13
2018-11-06T04:37:09.517Z,17.57
2018-11-06T04:39:37.789Z,17.10
2018-11-06T04:42:06.106Z,16.17
2018-11-06T04:44:34.357Z,17.37
2018-11-06T04:47:02.609Z,17.77
2018-11-06T04:49:30.874Z,16.10
2018-11-06T04:51:59.172Z,15.73
2018-11-06T04:54:27.492Z,14.67
2018-11-06T04:56:55.762Z,15.90
2018-11-06T04:59:24.091Z,16.77
2018-11-06T05:01:52.352Z,15.67
2018-11-06T05:04:20.612Z,15.07
2018-11-06T05:06:48.959Z,15.60
2018-11-06T05:09:17.161Z,16.10
2018-11-06T05:11:45.394Z,16.30
2018-11-06T05:14:13.739Z,16.80
2018-11-06T05:16:41.988Z,16.10
2018-11-06T05:19:10.291Z,15.37
2018-11-06T05:21:39.060Z,16.00
2018-11-06T05:24:07.328Z,16.03
2018-11-06T05:26:35.591Z,16.43
2018-11-06T05:29:03.935Z,16.63
2018-11-06T05:31:32.199Z,17.17
2018-11-06T05:34:00.466Z,17.20
2018-11-06T05:36:28.773Z,17.90
2018-11-06T05:38:57.028Z,18.53
2018-11-06T05:41:25.299Z,17.33
2018-11-06T05:43:53.611Z,17.27
2018-11-06T05:46:21.898Z,16.33
2018-11-06T05:48:50.152Z,17.83
2018-11-06T05:51:18.507Z,17.80
2018-11-06T05:53:46.764Z,18.03
2018-11-06T05:56:15.771Z,16.27
2018-11-06T05:58:44.051Z,17.77
2018-11-06T06:01:12.326Z,17.00
2018-11-06T06:03:40.993Z,17.67
2018-11-06T06:06:11.902Z,17.00
2018-11-06T06:08:40.690Z,17.50
2018-11-06T06:11:10.026Z,17.70
2018-11-06T06:13:40.437Z,18.77
2018-11-06T06:16:08.853Z,17.47
2018-11-06T06:18:37.263Z,18.90
2018-11-06T06:21:05.950Z,17.87
2018-11-06T06:23:34.453Z,17.63
2018-11-06T06:26:02.669Z,17.87
2018-11-06T06:28:31.116Z,20.97
2018-11-06T06:30:59.304Z,21.00
2018-11-06T06:33:27.529Z,22.93
2018-11-06T06:35:55.916Z,22.43
2018-11-06T06:38:24.181Z,22.47
2018-11-06T06:40:52.686Z,19.87
2018-11-06T06:43:20.847Z,20.77
2018-11-06T06:45:49.055Z,20.80
2018-11-06T06:48:17.372Z,19.10
2018-11-06T06:50:45.569Z,20.47
2018-11-06T06:53:13.782Z,20.23
2018-11-06T06:55:42.009Z,19.57
2018-11-06T06:58:10.277Z,18.57
2018-11-06T07:00:38.470Z,17.43
2018-11-06T07:03:06.728Z,18.00
2018-11-06T07:05:34.950Z,17.60
2018-11-06T07:08:03.179Z,17.70
2018-11-06T07:10:31.400Z,17.90
2018-11-06T07:12:59.684Z,16.87
2018-11-06T07:15:27.821Z,17.47
2018-11-06T07:17:56.067Z,17.67
2018-11-06T07:20:25.478Z,18.17
2018-11-06T07:22:53.918Z,17.57
2018-11-06T07:25:22.245Z,17.80
2018-11-06T07:27:50.498Z,16.00
2018-11-06T07:30:20.996Z,16.53
2018-11-06T07:32:49.273Z,16.87
2018-11-06T07:35:18.406Z,15.97
2018-11-06T07:37:46.829Z,16.43
2018-11-06T07:40:16.342Z,15.97
2018-11-06T07:42:44.553Z,16.63
2018-11-06T07:45:17.096Z,15.20
2018-11-06T07:47:45.441Z,17.13
2018-11-06T07:50:14.448Z,16.97
2018-11-06T07:52:42.889Z,16.33
2018-11-06T07:55:12.787Z,15.47
2018-11-06T07:57:41.081Z,16.60
2018-11-06T08:00:13.678Z,15.77
2018-11-06T08:02:42.120Z,15.37
2018-11-06T08:05:10.320Z,15.63
2018-11-06T08:07:38.525Z,15.67
2018-11-06T08:10:07.181Z,16.20
2018-11-06T08:12:35.452Z,15.00
2018-11-06T08:15:03.746Z,14.80
2018-11-06T08:17:31.945Z,14.60
2018-11-06T08:20:00.152Z,14.60
2018-11-06T08:22:28.389Z,14.83
2018-11-06T08:24:56.574Z,13.50
2018-11-06T08:27:24.791Z,13.73
2018-11-06T08:29:53.012Z,12.37
2018-11-06T08:32:21.462Z,13.50
2018-11-06T08:34:49.455Z,13.57
2018-11-06T08:37:17.706Z,13.87
2018-11-06T08:39:45.994Z,13.73
2018-11-06T08:42:14.224Z,12.93
2018-11-06T08:44:42.427Z,12.40
2018-11-06T08:47:10.660Z,12.00
2018-11-06T08:49:38.865Z,12.10
2018-11-06T08:52:07.402Z,12.07
2018-11-06T08:54:35.705Z,11.53
2018-11-06T08:57:03.857Z,11.70
2018-11-06T08:59:32.077Z,11.43
2018-11-06T09:02:00.423Z,11.83
2018-11-06T09:04:35.312Z,11.10
2018-11-06T09:07:03.842Z,11.33
2018-11-06T09:09:32.081Z,11.17
2018-11-06T09:12:00.370Z,10.43
2018-11-06T09:14:28.601Z,10.87
2018-11-06T09:16:56.653Z,9.43
2018-11-06T09:19:24.814Z,8.90
2018-11-06T09:21:53.070Z,9.07
2018-11-06T09:24:21.322Z,8.93
2018-11-06T09:26:49.595Z,8.40
2018-11-06T09:29:18.095Z,8.90
2018-11-06T09:31:46.322Z,8.77
2018-11-06T09:34:14.502Z,8.33
2018-11-06T09:36:42.753Z,7.83
2018-11-06T09:39:11.641Z,8.10
2018-11-06T09:41:40.159Z,7.40
2018-11-06T09:44:08.445Z,7.37
2018-11-06T09:46:37.312Z,8.07
2018-11-06T09:49:05.993Z,8.03
2018-11-06T09:51:34.226Z,7.80
2018-11-06T09:54:02.451Z,7.53
2018-11-06T09:56:30.674Z,8.27
2018-11-06T09:58:58.938Z,7.73
2018-11-06T10:01:27.168Z,8.00
2018-11-06T10:03:55.379Z,8.40
2018-11-06T10:06:23.885Z,7.90
2018-11-06T10:08:52.001Z,8.33
2018-11-06T10:11:20.276Z,8.80
2018-11-06T10:13:48.473Z,9.37
2018-11-06T10:16:16.451Z,8.80
2018-11-06T10:18:44.676Z,8.73
2018-11-06T10:21:12.913Z,9.03
2018-11-06T10:23:41.091Z,8.43
2018-11-06T10:26:09.328Z,8.73
2018-11-06T10:28:37.558Z,8.33
2018-11-06T10:31:05.853Z,7.90
2018-11-06T10:33:34.071Z,7.50
2018-11-06T10:36:02.297Z,7.63
2018-11-06T10:38:30.549Z,7.37
2018-11-06T10:40:58.808Z,7.97
2018-11-06T10:43:27.041Z,7.17
2018-11-06T10:45:55.285Z,7.13
2018-11-06T10:48:23.498Z,7.23
2018-11-06T10:50:51.709Z,6.77
2018-11-06T10:53:19.932Z,6.40
2018-11-06T10:55:48.138Z,6.40
2018-11-06T10:58:17.403Z,6.63
2018-11-06T11:00:50.758Z,6.80
2018-11-06T11:03:24.437Z,6.93
2018-11-06T11:05:52.689Z,6.33
2018-11-06T11:08:20.917Z,6.63
2018-11-06T11:10:49.184Z,6.70
2018-11-06T11:13:17.445Z,7.03
2018-11-06T11:15:45.607Z,7.27
2018-11-06T11:18:13.961Z,7.20
2018-11-06T11:20:42.158Z,7.00
2018-11-06T11:23:10.414Z,6.60
2018-11-06T11:25:38.784Z,6.50
2018-11-06T11:28:06.935Z,7.43
2018-11-06T11:30:35.162Z,7.03
2018-11-06T11:33:03.385Z,6.73
2018-11-06T11:35:31.607Z,6.80
2018-11-06T11:37:59.915Z,7.57
2018-11-06T11:40:28.153Z,6.20
2018-11-06T11:42:56.403Z,6.23
2018-11-06T11:45:24.665Z,6.33
2018-11-06T11:47:52.879Z,7.03
2018-11-06T11:50:21.097Z,7.60
2018-11-06T11:52:49.329Z,7.20
2018-11-06T11:55:17.530Z,7.07
2018-11-06T11:57:45.757Z,7.10
2018-11-06T12:00:16.830Z,7.43
2018-11-06T12:02:44.998Z,7.87
2018-11-06T12:05:13.188Z,7.40
2018-11-06T12:07:41.442Z,7.77
2018-11-06T12:10:10.796Z,7.47
2018-11-06T12:12:39.202Z,7.47
2018-11-06T12:15:09.666Z,7.43
2018-11-06T12:17:37.909Z,6.80
2018-11-06T12:20:06.145Z,6.63
2018-11-06T12:22:34.499Z,6.97
2018-11-06T12:25:02.989Z,6.67
2018-11-06T12:27:30.994Z,6.73
2018-11-06T12:29:59.221Z,6.53
2018-11-06T12:32:27.499Z,6.00
2018-11-06T12:34:55.652Z,6.17
2018-11-06T12:37:23.877Z,5.90
2018-11-06T12:39:52.129Z,5.67
2018-11-06T12:42:20.329Z,5.50
2018-11-06T12:44:48.563Z,5.57
2018-11-06T12:47:16.781Z,5.10
2018-11-06T12:49:44.987Z,4.77
2018-11-06T12:52:13.182Z,5.13
2018-11-06T12:54:41.392Z,5.10
2018-11-06T12:57:09.596Z,5.00
2018-11-06T12:59:37.874Z,5.83
2018-11-06T13:02:06.332Z,5.77
2018-11-06T13:04:34.521Z,5.47
2018-11-06T13:07:02.756Z,5.37
2018-11-06T13:09:30.946Z,4.87
2018-11-06T13:11:59.255Z,6.07
2018-11-06T13:14:27.489Z,5.73
2018-11-06T13:16:55.740Z,5.57
2018-11-06T13:19:23.919Z,5.47
2018-11-06T13:21:52.121Z,5.77
2018-11-06T13:24:20.341Z,6.27
2018-11-06T13:26:48.606Z,6.00
2018-11-06T13:29:16.841Z,6.33
2018-11-06T13:31:45.121Z,6.47
2018-11-06T13:34:13.359Z,6.07
2018-11-06T13:36:41.564Z,6.63
2018-11-06T13:39:11.515Z,6.53
2018-11-06T13:41:40.111Z,6.73
2018-11-06T13:44:08.736Z,7.03
2018-11-06T13:46:36.731Z,7.10
2018-11-06T13:49:05.224Z,7.63
2018-11-06T13:51:33.443Z,7.47
2018-11-06T13:54:01.793Z,7.40
2018-11-06T13:56:30.067Z,7.03
2018-11-06T13:58:58.305Z,7.10
2018-11-06T14:01:26.581Z,7.37
2018-11-06T14:03:54.829Z,7.53
2018-11-06T14:06:23.097Z,7.90
2018-11-06T14:08:51.361Z,8.10
2018-11-06T14:11:19.780Z,7.90
2018-11-06T14:13:48.009Z,8.17
2018-11-06T14:16:19.607Z,8.00
2018-11-06T14:18:50.730Z,8.40
2018-11-06T14:21:19.322Z,8.33
2018-11-06T14:23:47.905Z,8.53
2018-11-06T14:26:16.625Z,8.93
2018-11-06T14:28:44.950Z,9.17
2018-11-06T14:31:13.217Z,8.60
2018-11-06T14:33:41.405Z,8.73
2018-11-06T14:36:09.609Z,9.07
2018-11-06T14:38:37.768Z,9.50
2018-11-06T14:41:06.000Z,8.63
2018-11-06T14:43:34.194Z,9.33
2018-11-06T14:46:02.437Z,9.90
2018-11-06T14:48:30.763Z,9.60
2018-11-06T14:51:03.493Z,9.47
2018-11-06T14:53:31.703Z,9.80
2018-11-06T14:55:59.918Z,10.30
2018-11-06T14:58:28.105Z,10.33
2018-11-06T15:00:56.349Z,10.23
2018-11-06T15:03:24.830Z,10.40
2018-11-06T15:05:53.123Z,10.23
2018-11-06T15:08:21.335Z,11.27
2018-11-06T15:10:49.515Z,10.50
2018-11-06T15:13:17.731Z,10.33
2018-11-06T15:15:45.927Z,10.50
2018-11-06T15:18:14.128Z,10.60
2018-11-06T15:20:49.188Z,11.70
2018-11-06T15:23:17.381Z,10.83
2018-11-06T15:25:45.625Z,11.73
2018-11-06T15:28:15.009Z,10.90
2018-11-06T15:30:43.604Z,10.93
2018-11-06T15:33:11.783Z,11.77
2018-11-06T15:35:39.978Z,11.90
2018-11-06T15:38:08.189Z,11.20
2018-11-06T15:40:36.417Z,12.07
2018-11-06T15:43:04.598Z,11.97
2018-11-06T15:45:32.777Z,10.87
2018-11-06T15:48:00.972Z,11.43
2018-11-06T15:50:29.154Z,11.33
2018-11-06T15:52:57.357Z,10.90
2018-11-06T15:55:25.546Z,11.83
2018-11-06T15:57:53.762Z,12.10
2018-11-06T16:00:23.200Z,11.17
2018-11-06T16:02:51.659Z,12.60
2018-11-06T16:05:22.398Z,11.27
2018-11-06T16:07:51.090Z,12.13
2018-11-06T16:10:20.624Z,11.93
2018-11-06T16:12:48.892Z,13.53
2018-11-06T16:15:18.001Z,12.03
2018-11-06T16:17:46.423Z,12.17
2018-11-06T16:20:16.088Z,12.43
2018-11-06T16:22:44.601Z,12.40
2018-11-06T16:25:13.979Z,12.67
2018-11-06T16:27:42.665Z,12.07
2018-11-06T16:30:13.424Z,12.93
2018-11-06T16:32:41.751Z,13.27
2018-11-06T16:35:12.137Z,12.30
2018-11-06T16:37:40.621Z,12.70
2018-11-06T16:40:09.260Z,11.57
2018-11-06T16:42:38.199Z,13.03
2018-11-06T16:45:08.278Z,13.03
2018-11-06T16:47:36.559Z,13.00
2018-11-06T16:50:05.620Z,12.30
2018-11-06T16:52:33.863Z,11.97
2018-11-06T16:55:02.107Z,11.73
2018-11-06T16:57:30.371Z,12.13
2018-11-06T16:59:58.708Z,12.00
2018-11-06T17:02:26.916Z,11.57
2018-11-06T17:04:55.177Z,11.20
2018-11-06T17:07:23.486Z,12.77
2018-11-06T17:09:51.691Z,12.67
2018-11-06T17:12:19.968Z,12.20
2018-11-06T17:14:48.245Z,12.60
2018-11-06T17:17:16.574Z,12.87
2018-11-06T17:19:45.019Z,12.47
2018-11-06T17:22:13.288Z,12.63
2018-11-06T17:24:41.622Z,13.27
2018-11-06T17:27:09.932Z,13.00
2018-11-06T17:29:41.167Z,13.17
2018-11-06T17:32:09.437Z,12.67
2018-11-06T17:34:37.744Z,14.43
2018-11-06T17:37:06.236Z,14.87
2018-11-06T17:39:35.866Z,17.17
2018-11-06T17:42:05.145Z,16.97
2018-11-06T17:44:33.470Z,16.23
2018-11-06T17:47:03.756Z,16.53
2018-11-06T17:49:32.074Z,16.10
2018-11-06T17:52:00.325Z,16.23
2018-11-06T17:54:28.620Z,16.13
2018-11-06T17:56:56.979Z,15.93
2018-11-06T17:59:25.199Z,14.60
2018-11-06T18:01:53.477Z,15.00
2018-11-06T18:04:21.981Z,14.33
2018-11-06T18:06:50.209Z,13.97
2018-11-06T18:09:18.475Z,13.97
2018-11-06T18:11:46.750Z,14.00
2018-11-06T18:14:14.997Z,15.30
2018-11-06T18:16:43.284Z,14.40
2018-11-06T18:19:11.587Z,13.73
2018-11-06T18:21:39.844Z,15.60
2018-11-06T18:24:08.075Z,14.80
2018-11-06T18:26:36.375Z,14.80
2018-11-06T18:29:04.866Z,15.03
2018-11-06T18:31:33.209Z,15.13
2018-11-06T18:34:01.585Z,18.57
2018-11-06T18:36:30.147Z,16.90
2018-11-06T18:38:58.673Z,16.07
2018-11-06T18:41:27.709Z,15.50
2018-11-06T18:43:57.551Z,14.53
2018-11-06T18:46:26.164Z,15.80
2018-11-06T18:48:54.545Z,14.63
2018-11-06T18:51:22.931Z,15.17
2018-11-06T18:53:51.381Z,13.90
2018-11-06T18:56:19.786Z,15.30
2018-11-06T18:58:48.326Z,14.90
2018-11-06T19:01:16.676Z,14.37
2018-11-06T19:03:45.114Z,13.47
2018-11-06T19:06:13.467Z,14.43
2018-11-06T19:08:43.248Z,15.33
2018-11-06T19:11:11.749Z,16.33
2018-11-06T19:13:40.197Z,17.13
2018-11-06T19:16:08.465Z,17.43
2018-11-06T19:18:36.860Z,16.63
2018-11-06T19:21:06.117Z,18.67
2018-11-06T19:23:34.994Z,17.80
2018-11-06T19:26:05.289Z,18.17
2018-11-06T19:28:34.571Z,18.83
2018-11-06T19:31:02.987Z,18.00
2018-11-06T19:33:31.922Z,16.43
2018-11-06T19:36:00.310Z,16.80
2018-11-06T19:38:28.775Z,15.60
2018-11-06T19:40:57.440Z,14.70
2018-11-06T19:43:25.935Z,14.67
2018-11-06T19:45:55.071Z,14.97
2018-11-06T19:48:23.552Z,14.43
2018-11-06T19:50:52.210Z,16.43
2018-11-06T19:53:20.962Z,10.23
2018-11-06T19:55:49.310Z,12.37
2018-11-06T19:58:17.780Z,9.23
2018-11-06T20:00:46.276Z,6.57
2018-11-06T20:03:14.697Z,6.30
2018-11-06T20:05:44.581Z,7.37
2018-11-06T20:08:13.375Z,6.20
2018-11-06T20:10:42.390Z,5.97
2018-11-06T20:13:10.745Z,9.57
2018-11-06T20:15:39.110Z,15.07
2018-11-06T20:18:07.625Z,14.60
2018-11-06T20:20:36.045Z,16.33
2018-11-06T20:23:05.464Z,16.17
2018-11-06T20:25:33.797Z,16.90
2018-11-06T20:28:02.074Z,16.97
2018-11-06T20:30:30.413Z,17.57
2018-11-06T20:32:58.871Z,17.77
2018-11-06T20:35:27.272Z,15.63
2018-11-06T20:37:56.158Z,13.00
2018-11-06T20:40:25.454Z,8.77
2018-11-06T20:42:53.878Z,8.23
2018-11-06T20:45:22.541Z,6.13
2018-11-06T20:47:50.967Z,6.27
2018-11-06T20:50:20.899Z,7.13
2018-11-06T20:52:49.655Z,6.50
2018-11-06T20:55:18.748Z,6.40
2018-11-06T20:57:47.311Z,6.00
2018-11-06T21:00:25.986Z,6.20
2018-11-06T21:02:55.470Z,6.07
2018-11-06T21:05:23.815Z,6.07
2018-11-06T21:07:52.423Z,5.97
2018-11-06T21:10:21.943Z,5.73
2018-11-06T21:12:50.291Z,5.63
2018-11-06T21:15:18.742Z,6.40
2018-11-06T21:17:47.265Z,6.43
2018-11-06T21:20:17.115Z,6.63
2018-11-06T21:22:45.589Z,6.10
2018-11-06T21:25:14.334Z,6.60
2018-11-06T21:27:42.949Z,6.87
2018-11-06T21:30:14.329Z,6.23
2018-11-06T21:32:43.982Z,6.37
2018-11-06T21:35:12.333Z,6.50
2018-11-06T21:37:40.884Z,6.37
2018-11-06T21:40:11.581Z,6.53
2018-11-06T21:42:40.660Z,6.57
2018-11-06T21:45:10.013Z,6.20
2018-11-06T21:47:38.327Z,6.50
2018-11-06T21:50:08.042Z,6.33
2018-11-06T21:52:36.506Z,6.13
2018-11-06T21:55:06.590Z,7.17
2018-11-06T21:57:35.322Z,6.40
2018-11-06T22:00:04.100Z,6.50
2018-11-06T22:02:32.400Z,6.90
2018-11-06T22:05:00.721Z,6.97
2018-11-06T22:07:29.026Z,6.93
2018-11-06T22:09:57.448Z,7.03
2018-11-06T22:12:25.743Z,6.57
2018-11-06T22:14:53.983Z,6.57
2018-11-06T22:17:22.329Z,6.60
2018-11-06T22:19:51.555Z,7.07
2018-11-06T22:22:19.867Z,6.73
2018-11-06T22:24:48.189Z,6.87
2018-11-06T22:27:16.491Z,7.03
2018-11-06T22:29:44.829Z,6.27
2018-11-06T22:32:13.309Z,7.03
2018-11-06T22:34:41.467Z,6.77
2018-11-06T22:37:09.803Z,6.40
2018-11-06T22:39:37.970Z,6.60
2018-11-06T22:42:06.781Z,6.77
2018-11-06T22:44:35.049Z,6.97
2018-11-06T22:47:03.298Z,6.53
2018-11-06T22:49:31.688Z,6.90
2018-11-06T22:52:00.064Z,6.97
2018-11-06T22:54:28.297Z,6.53
2018-11-06T22:56:56.542Z,6.57
2018-11-06T22:59:24.794Z,6.57
2018-11-06T23:01:53.058Z,6.90
2018-11-06T23:04:21.302Z,7.23
2018-11-06T23:06:49.637Z,7.27
2018-11-06T23:09:17.827Z,7.40
2018-11-06T23:11:46.109Z,6.47
2018-11-06T23:14:14.393Z,6.70
2018-11-06T23:16:42.698Z,6.77
2018-11-06T23:19:10.938Z,6.67
2018-11-06T23:21:39.177Z,6.70
2018-11-06T23:24:07.444Z,7.37
2018-11-06T23:26:35.720Z,6.90
2018-11-06T23:29:04.012Z,6.90
2018-11-06T23:31:32.363Z,6.93
2018-11-06T23:34:00.611Z,6.83
2018-11-06T23:36:29.240Z,6.83
2018-11-06T23:38:57.508Z,7.50
2018-11-06T23:41:25.816Z,6.70
2018-11-06T23:43:54.102Z,7.23
2018-11-06T23:46:22.396Z,7.03
2018-11-06T23:48:50.665Z,6.63
2018-11-06T23:51:18.913Z,6.80
2018-11-06T23:53:47.184Z,6.90
2018-11-06T23:56:15.470Z,6.80
2018-11-06T23:58:43.679Z,7.37
